Time;durP1;ratioP1;P1;durP2;ratioP2;P2;SDS_P1;SDS_P2;PMS_P1;PMS_P2;Temp;Humidity;BMP_temperature;BMP_pressure;BME280_temperature;BME280_humidity;BME280_pressure;Samples;Min_cycle;Max_cycle;Signal;HPM_P1;HPM_P2
2023/04/20 00:01:09;;;;;;;0.40;0.40;;;11.20;39.00;;;;;;5005632;28;20019;-69
2023/04/20 00:03:36;;;;;;;1.10;0.40;;;11.10;39.20;;;;;;4988874;28;20407;-69
2023/04/20 00:06:02;;;;;;;0.55;0.45;;;11.00;39.30;;;;;;5008496;28;20057;-69
2023/04/20 00:08:28;;;;;;;1.15;0.68;;;10.90;39.50;;;;;;5005445;28;20034;-68
2023/04/20 00:10:54;;;;;;;2.45;0.95;;;10.90;39.80;;;;;;4988307;28;20033;-69
2023/04/20 00:13:20;;;;;;;0.65;0.65;;;10.90;40.00;;;;;;5008256;28;20033;-68
2023/04/20 00:15:45;;;;;;;1.88;0.88;;;10.80;39.90;;;;;;4991072;28;20037;-69
2023/04/20 00:18:11;;;;;;;1.67;0.60;;;10.80;40.00;;;;;;4975067;28;20145;-69
2023/04/20 00:20:37;;;;;;;0.70;0.70;;;10.70;40.00;;;;;;4986217;28;20049;-69
2023/04/20 00:23:03;;;;;;;0.65;0.40;;;10.80;40.10;;;;;;5007656;28;20021;-68
2023/04/20 00:25:30;;;;;;;0.65;0.57;;;10.70;40.20;;;;;;5004846;28;20026;-69
2023/04/20 00:27:56;;;;;;;2.58;0.73;;;10.70;40.30;;;;;;5006638;28;20037;-73
2023/04/20 00:30:22;;;;;;;0.85;0.70;;;10.70;40.40;;;;;;4989131;28;20034;-71
2023/04/20 00:32:47;;;;;;;0.43;0.40;;;10.70;40.30;;;;;;5006220;28;20033;-69
2023/04/20 00:35:13;;;;;;;0.95;0.73;;;10.70;40.40;;;;;;4999507;28;20121;-66
2023/04/20 00:37:39;;;;;;;1.17;0.57;;;10.60;40.60;;;;;;5003779;28;20140;-68
2023/04/20 00:40:06;;;;;;;0.45;0.35;;;10.60;40.70;;;;;;5006083;28;20109;-69
2023/04/20 00:42:31;;;;;;;1.60;0.55;;;10.50;40.60;;;;;;4989670;28;20100;-69
2023/04/20 00:44:57;;;;;;;2.50;0.65;;;10.50;40.70;;;;;;5007604;28;20386;-68
2023/04/20 00:47:23;;;;;;;0.47;0.43;;;10.50;40.90;;;;;;5005491;28;20494;-69
2023/04/20 00:49:50;;;;;;;10.57;0.85;;;10.50;41.00;;;;;;5006128;28;20026;-69
2023/04/20 00:52:16;;;;;;;0.77;0.50;;;10.50;41.10;;;;;;5005438;28;20028;-69
2023/04/20 00:54:41;;;;;;;2.15;0.60;;;10.50;41.10;;;;;;5006111;28;20030;-68
2023/04/20 00:57:07;;;;;;;0.52;0.40;;;10.50;41.50;;;;;;4972969;28;20121;-69
2023/04/20 00:59:33;;;;;;;2.78;0.70;;;10.50;41.20;;;;;;4989832;28;20026;-69
2023/04/20 01:01:59;;;;;;;0.55;0.47;;;10.50;41.40;;;;;;5005249;28;20121;-69
2023/04/20 01:04:25;;;;;;;3.95;0.75;;;10.40;41.40;;;;;;5006310;28;20034;-68
2023/04/20 01:06:50;;;;;;;1.10;0.85;;;10.40;41.50;;;;;;5004910;28;20034;-69
2023/04/20 01:09:16;;;;;;;3.08;0.55;;;10.40;41.70;;;;;;5009862;28;20188;-69
2023/04/20 01:11:42;;;;;;;0.60;0.60;;;10.40;41.90;;;;;;5011145;28;20022;-69
2023/04/20 01:14:07;;;;;;;0.90;0.63;;;10.40;42.20;;;;;;4993081;28;20034;-69
2023/04/20 01:16:35;;;;;;;0.80;0.80;;;10.30;42.30;;;;;;5010498;28;20171;-69
2023/04/20 01:19:00;;;;;;;0.82;0.68;;;10.40;42.50;;;;;;5008425;28;20090;-69
2023/04/20 01:21:26;;;;;;;1.10;0.60;;;10.40;42.90;;;;;;5005093;28;20042;-69
2023/04/20 01:23:52;;;;;;;0.93;0.80;;;10.40;43.10;;;;;;4992435;28;20496;-68
2023/04/20 01:26:19;;;;;;;0.70;0.60;;;10.50;43.20;;;;;;4992368;28;20038;-68
2023/04/20 01:28:45;;;;;;;0.90;0.65;;;10.50;43.30;;;;;;5006518;28;20029;-69
2023/04/20 01:31:11;;;;;;;0.65;0.65;;;10.60;43.50;;;;;;5009671;28;20025;-69
2023/04/20 01:33:37;;;;;;;0.63;0.63;;;10.60;43.50;;;;;;5011202;28;20029;-69
2023/04/20 01:36:05;;;;;;;0.93;0.43;;;10.70;43.70;;;;;;5010008;28;20037;-69
2023/04/20 01:38:33;;;;;;;0.55;0.50;;;10.70;44.00;;;;;;5005511;28;20069;-68
2023/04/20 01:40:59;;;;;;;1.05;0.80;;;10.70;44.60;;;;;;5005452;28;20480;-69
2023/04/20 01:43:25;;;;;;;5.43;0.93;;;10.70;45.20;;;;;;5010925;28;20491;-68
2023/04/20 01:45:51;;;;;;;0.65;0.55;;;10.70;45.40;;;;;;5010207;28;20041;-69
2023/04/20 01:48:16;;;;;;;2.28;1.20;;;10.60;45.40;;;;;;5011380;28;20471;-69
2023/04/20 01:50:42;;;;;;;0.70;0.60;;;10.60;45.50;;;;;;4991574;28;20033;-69
2023/04/20 01:53:08;;;;;;;1.02;0.57;;;10.50;45.90;;;;;;5010106;28;20026;-69
2023/04/20 01:55:34;;;;;;;1.77;0.80;;;10.50;46.00;;;;;;4990260;28;20519;-69
2023/04/20 01:58:00;;;;;;;0.65;0.65;;;10.50;46.20;;;;;;4992910;28;20023;-68
2023/04/20 02:00:26;;;;;;;1.85;0.60;;;10.40;46.50;;;;;;5002681;28;20472;-69
2023/04/20 02:02:54;;;;;;;1.00;0.77;;;10.40;46.80;;;;;;4984135;28;20400;-69
2023/04/20 02:05:20;;;;;;;0.50;0.50;;;10.40;47.00;;;;;;5009719;28;20040;-69
2023/04/20 02:07:46;;;;;;;1.08;0.98;;;10.30;47.20;;;;;;5006392;28;20459;-69
2023/04/20 02:10:11;;;;;;;1.83;0.80;;;10.30;47.40;;;;;;4999510;28;20047;-69
2023/04/20 02:12:37;;;;;;;0.82;0.82;;;10.30;47.50;;;;;;4992984;28;20102;-68
2023/04/20 02:15:04;;;;;;;0.50;0.50;;;10.20;47.70;;;;;;4995939;28;20401;-69
2023/04/20 02:17:31;;;;;;;0.90;0.70;;;10.20;47.80;;;;;;4995311;28;20448;-69
2023/04/20 02:19:57;;;;;;;0.77;0.73;;;10.20;48.10;;;;;;4991974;28;20084;-69
2023/04/20 02:22:23;;;;;;;0.52;0.52;;;10.20;48.10;;;;;;5008147;28;20085;-69
2023/04/20 02:24:48;;;;;;;1.02;0.70;;;10.20;48.40;;;;;;5008502;28;20036;-68
2023/04/20 02:27:14;;;;;;;0.93;0.60;;;10.20;48.60;;;;;;5008759;28;20038;-69
2023/04/20 02:29:40;;;;;;;0.52;0.52;;;10.20;48.60;;;;;;5009339;28;20026;-69
2023/04/20 02:32:06;;;;;;;1.35;0.70;;;10.20;48.70;;;;;;5005528;28;20035;-69
2023/04/20 02:34:32;;;;;;;0.90;0.63;;;10.30;48.70;;;;;;4986300;28;20022;-68
2023/04/20 02:36:58;;;;;;;3.35;0.93;;;10.30;48.70;;;;;;5009297;28;20084;-69
2023/04/20 02:39:24;;;;;;;1.02;0.70;;;10.30;49.10;;;;;;4990996;28;20030;-69
2023/04/20 02:41:49;;;;;;;1.77;0.95;;;10.30;49.20;;;;;;5010085;28;20092;-68
2023/04/20 02:44:15;;;;;;;1.48;0.80;;;10.30;49.30;;;;;;5008899;28;20060;-69
2023/04/20 02:46:41;;;;;;;1.30;0.63;;;10.40;49.30;;;;;;5007770;28;20034;-69
2023/04/20 02:49:07;;;;;;;1.15;0.85;;;10.40;49.40;;;;;;5004705;28;20022;-69
2023/04/20 02:51:32;;;;;;;1.05;0.80;;;10.40;49.50;;;;;;5005862;28;20038;-69
2023/04/20 02:53:58;;;;;;;3.05;0.68;;;10.40;49.80;;;;;;4989255;28;20051;-69
2023/04/20 02:56:25;;;;;;;0.70;0.70;;;10.40;50.00;;;;;;4987164;28;20493;-69
2023/04/20 02:58:51;;;;;;;4.07;0.88;;;10.40;50.20;;;;;;5001347;28;20444;-68
2023/04/20 03:01:17;;;;;;;0.60;0.60;;;10.50;50.10;;;;;;5008763;28;20528;-69
2023/04/20 03:03:43;;;;;;;0.98;0.70;;;10.50;50.00;;;;;;5006534;28;20050;-69
2023/04/20 03:06:08;;;;;;;0.80;0.68;;;10.50;50.30;;;;;;5007892;28;20046;-68
2023/04/20 03:08:34;;;;;;;0.80;0.80;;;10.60;50.50;;;;;;4990973;28;20064;-68
2023/04/20 03:11:00;;;;;;;3.25;0.88;;;10.60;50.60;;;;;;4990679;28;20030;-68
2023/04/20 03:13:25;;;;;;;0.90;0.75;;;10.60;50.70;;;;;;5007009;28;20048;-69
2023/04/20 03:15:51;;;;;;;0.85;0.75;;;10.50;50.70;;;;;;5008615;28;20109;-69
2023/04/20 03:18:17;;;;;;;2.33;1.08;;;10.60;50.70;;;;;;5003172;28;20495;-69
2023/04/20 03:20:42;;;;;;;4.47;0.85;;;10.60;50.90;;;;;;5008068;28;20544;-69
2023/04/20 03:23:09;;;;;;;2.58;0.57;;;10.60;50.90;;;;;;5007340;28;20061;-69
2023/04/20 03:25:35;;;;;;;2.35;0.75;;;10.60;50.80;;;;;;4989129;28;20412;-69
2023/04/20 03:28:01;;;;;;;0.90;0.85;;;10.60;51.00;;;;;;5008784;28;20029;-69
2023/04/20 03:30:27;;;;;;;0.95;0.82;;;10.60;51.00;;;;;;5007343;28;20096;-68
2023/04/20 03:32:53;;;;;;;1.05;0.80;;;10.60;51.10;;;;;;5006854;28;20116;-69
2023/04/20 03:35:19;;;;;;;0.88;0.88;;;10.60;51.30;;;;;;5001943;28;20042;-68
2023/04/20 03:37:47;;;;;;;2.53;1.33;;;10.60;51.40;;;;;;5001716;28;20426;-68
2023/04/20 03:40:13;;;;;;;1.42;0.70;;;10.60;51.40;;;;;;4956067;28;20030;-69
2023/04/20 03:42:39;;;;;;;0.50;0.50;;;10.60;51.40;;;;;;5006085;28;21407;-68
2023/04/20 03:45:05;;;;;;;1.10;0.60;;;10.60;51.40;;;;;;5005971;28;20032;-68
2023/04/20 03:47:32;;;;;;;3.08;1.00;;;10.60;51.60;;;;;;5005924;28;20073;-68
2023/04/20 03:49:57;;;;;;;0.98;0.55;;;10.60;51.80;;;;;;5005574;28;20029;-69
2023/04/20 03:52:23;;;;;;;0.98;0.70;;;10.60;51.70;;;;;;5005667;28;20559;-68
2023/04/20 03:54:49;;;;;;;0.60;0.50;;;10.60;51.80;;;;;;5007599;28;20022;-68
2023/04/20 03:57:14;;;;;;;1.05;0.50;;;10.60;51.80;;;;;;5007341;28;20033;-68
2023/04/20 03:59:40;;;;;;;0.70;0.50;;;10.70;51.80;;;;;;5007440;28;20176;-69
2023/04/20 04:02:06;;;;;;;0.82;0.55;;;10.70;52.00;;;;;;4990353;28;20045;-68
2023/04/20 04:04:32;;;;;;;1.45;0.63;;;10.60;52.20;;;;;;5007166;28;20030;-68
2023/04/20 04:06:57;;;;;;;2.67;1.05;;;10.60;52.00;;;;;;5006517;28;20042;-69
2023/04/20 04:09:25;;;;;;;1.23;1.00;;;10.60;52.00;;;;;;4989842;28;20026;-68
2023/04/20 04:11:52;;;;;;;0.70;0.63;;;10.60;52.20;;;;;;5002899;28;20481;-69
2023/04/20 04:14:17;;;;;;;0.45;0.40;;;10.60;52.30;;;;;;4990053;28;20453;-69
2023/04/20 04:16:43;;;;;;;0.75;0.60;;;10.60;52.20;;;;;;5005931;28;20036;-68
2023/04/20 04:19:10;;;;;;;0.55;0.40;;;10.60;52.30;;;;;;5007208;28;20029;-68
2023/04/20 04:21:35;;;;;;;2.15;0.88;;;10.60;52.40;;;;;;5005862;28;20492;-68
2023/04/20 04:24:02;;;;;;;1.65;0.90;;;10.60;52.40;;;;;;4971867;28;20044;-68
2023/04/20 04:26:28;;;;;;;0.70;0.70;;;10.60;52.40;;;;;;5003085;28;20412;-68
2023/04/20 04:28:54;;;;;;;2.30;0.90;;;10.70;52.40;;;;;;4990279;28;20034;-68
2023/04/20 04:31:20;;;;;;;0.90;0.70;;;10.70;52.40;;;;;;5002381;28;20035;-68
2023/04/20 04:33:46;;;;;;;0.75;0.75;;;10.70;52.50;;;;;;5004058;28;20025;-69
2023/04/20 04:36:14;;;;;;;0.70;0.63;;;10.60;52.60;;;;;;4987810;28;20386;-69
2023/04/20 04:38:46;;;;;;;0.80;0.57;;;10.60;52.80;;;;;;5004878;28;20060;-69
2023/04/20 04:41:12;;;;;;;0.65;0.52;;;10.60;52.90;;;;;;5004920;28;20036;-69
2023/04/20 04:43:39;;;;;;;0.73;0.57;;;10.60;52.80;;;;;;4988600;28;20109;-69
2023/04/20 04:46:08;;;;;;;0.82;0.70;;;10.60;52.90;;;;;;5010237;28;20385;-68
2023/04/20 04:48:34;;;;;;;1.75;0.80;;;10.60;52.80;;;;;;5011829;28;20030;-69
2023/04/20 04:51:01;;;;;;;2.10;0.75;;;10.60;53.10;;;;;;4995132;28;20034;-69
2023/04/20 04:53:26;;;;;;;1.15;0.60;;;10.60;53.20;;;;;;4991455;28;20444;-70
2023/04/20 04:55:52;;;;;;;1.92;1.00;;;10.60;53.20;;;;;;5008650;28;20118;-67
2023/04/20 04:58:19;;;;;;;1.20;0.70;;;10.60;53.10;;;;;;5011283;28;20053;-68
2023/04/20 05:00:45;;;;;;;1.17;0.90;;;10.70;53.10;;;;;;5007456;28;20033;-68
2023/04/20 05:03:10;;;;;;;1.67;0.68;;;10.70;53.10;;;;;;4992042;28;21208;-68
2023/04/20 05:05:37;;;;;;;2.30;1.13;;;10.70;53.10;;;;;;5010125;28;20037;-68
2023/04/20 05:08:02;;;;;;;1.55;0.60;;;10.70;53.20;;;;;;4990469;28;20018;-68
2023/04/20 05:10:28;;;;;;;3.08;1.38;;;10.70;53.30;;;;;;4990287;28;20499;-68
2023/04/20 05:12:54;;;;;;;1.27;0.60;;;10.70;53.40;;;;;;5009428;28;20026;-68
2023/04/20 05:15:20;;;;;;;0.77;0.70;;;10.70;53.40;;;;;;4991252;28;20424;-68
2023/04/20 05:17:48;;;;;;;0.75;0.50;;;10.80;53.40;;;;;;4992259;28;20041;-68
2023/04/20 05:20:14;;;;;;;0.93;0.60;;;10.80;53.30;;;;;;5011543;28;20117;-69
2023/04/20 05:22:40;;;;;;;1.20;0.63;;;10.90;53.30;;;;;;5008958;28;20502;-69
2023/04/20 05:25:06;;;;;;;0.93;0.70;;;10.90;53.20;;;;;;4992302;28;20029;-68
2023/04/20 05:27:32;;;;;;;1.17;0.65;;;10.90;53.30;;;;;;5010111;28;20032;-69
2023/04/20 05:29:58;;;;;;;2.15;0.85;;;10.90;53.30;;;;;;5008204;28;20083;-69
2023/04/20 05:32:23;;;;;;;0.68;0.65;;;11.00;53.40;;;;;;4990823;28;20034;-69
2023/04/20 05:34:49;;;;;;;3.05;0.88;;;11.00;53.40;;;;;;4994271;28;20113;-69
2023/04/20 05:37:15;;;;;;;1.00;0.70;;;11.00;53.30;;;;;;4992729;28;20042;-69
2023/04/20 05:39:41;;;;;;;0.50;0.40;;;10.90;53.50;;;;;;4991153;28;20060;-68
2023/04/20 05:42:07;;;;;;;0.65;0.60;;;11.00;53.60;;;;;;5008691;28;20057;-69
2023/04/20 05:44:35;;;;;;;2.67;1.27;;;11.00;53.70;;;;;;5009625;28;20030;-69
2023/04/20 05:47:05;;;;;;;1.17;0.50;;;11.00;53.90;;;;;;4991790;28;20026;-69
2023/04/20 05:49:31;;;;;;;3.08;1.00;;;11.00;53.80;;;;;;4961726;28;20534;-69
2023/04/20 05:51:57;;;;;;;1.05;0.93;;;11.10;53.90;;;;;;4988531;28;20084;-69
2023/04/20 05:54:23;;;;;;;2.58;0.60;;;11.10;53.80;;;;;;5006360;28;20034;-68
2023/04/20 05:56:49;;;;;;;0.68;0.50;;;11.10;53.80;;;;;;5008945;28;20049;-69
2023/04/20 05:59:16;;;;;;;2.90;0.73;;;11.20;53.70;;;;;;4992770;28;20030;-69
2023/04/20 06:01:41;;;;;;;3.92;1.05;;;11.20;53.60;;;;;;5007293;28;20029;-68
2023/04/20 06:04:07;;;;;;;2.13;0.80;;;11.30;53.60;;;;;;5011057;28;20164;-69
2023/04/20 06:06:33;;;;;;;1.08;0.70;;;11.30;53.60;;;;;;5009200;28;20133;-69
2023/04/20 06:08:59;;;;;;;0.68;0.60;;;11.30;53.70;;;;;;5010445;28;20061;-68
2023/04/20 06:11:24;;;;;;;1.10;0.68;;;11.30;53.60;;;;;;5007451;28;20116;-69
2023/04/20 06:13:50;;;;;;;0.80;0.50;;;11.30;53.60;;;;;;5007781;28;20030;-69
2023/04/20 06:16:16;;;;;;;0.80;0.70;;;11.30;53.60;;;;;;4991962;28;20111;-69
2023/04/20 06:18:41;;;;;;;1.80;0.75;;;11.40;53.50;;;;;;4992248;28;20515;-69
2023/04/20 06:21:10;;;;;;;1.95;0.60;;;11.30;53.50;;;;;;5008520;28;20065;-69
2023/04/20 06:23:39;;;;;;;1.92;0.85;;;11.40;53.60;;;;;;4992277;28;20072;-69
2023/04/20 06:26:07;;;;;;;1.23;0.77;;;11.30;53.70;;;;;;5002998;28;20049;-69
2023/04/20 06:28:34;;;;;;;1.90;0.82;;;11.30;53.80;;;;;;5001425;28;20021;-69
2023/04/20 06:31:00;;;;;;;0.65;0.60;;;11.30;53.80;;;;;;5005081;28;20026;-69
2023/04/20 06:33:26;;;;;;;0.73;0.60;;;11.30;53.60;;;;;;4991998;28;20113;-69
2023/04/20 06:35:53;;;;;;;1.27;0.93;;;11.40;53.60;;;;;;5007392;28;20099;-68
2023/04/20 06:38:19;;;;;;;0.73;0.63;;;11.50;53.50;;;;;;5007796;28;20038;-69
2023/04/20 06:40:45;;;;;;;1.70;0.80;;;11.50;53.50;;;;;;4992959;28;20038;-69
2023/04/20 06:43:11;;;;;;;2.75;1.02;;;11.50;53.50;;;;;;5007395;28;20030;-69
2023/04/20 06:45:36;;;;;;;1.00;0.80;;;11.50;53.70;;;;;;5006486;28;20033;-69
2023/04/20 06:48:02;;;;;;;5.25;0.88;;;11.50;53.70;;;;;;5010758;28;20031;-69
2023/04/20 06:50:28;;;;;;;1.40;0.90;;;11.50;53.70;;;;;;4997503;28;20091;-70
2023/04/20 06:52:53;;;;;;;2.03;0.98;;;11.50;53.60;;;;;;4993814;28;20084;-69
2023/04/20 06:55:19;;;;;;;1.75;0.95;;;11.60;53.70;;;;;;4989562;28;20024;-69
2023/04/20 06:57:45;;;;;;;2.38;0.93;;;11.60;53.70;;;;;;4991632;28;20041;-69
2023/04/20 07:00:11;;;;;;;2.47;0.77;;;11.60;53.60;;;;;;4990863;28;20072;-69
2023/04/20 07:02:50;;;;;;;1.20;0.95;;;11.60;53.70;;;;;;5007726;28;20054;-69
2023/04/20 07:05:16;;;;;;;1.15;1.00;;;11.60;53.80;;;;;;5008123;28;20029;-69
2023/04/20 07:07:42;;;;;;;3.35;0.82;;;11.50;54.10;;;;;;5009975;28;20103;-69
2023/04/20 07:10:10;;;;;;;1.33;0.80;;;11.40;54.30;;;;;;5009286;28;20026;-69
2023/04/20 07:12:36;;;;;;;0.80;0.80;;;11.50;54.30;;;;;;5000962;28;20056;-69
2023/04/20 07:15:03;;;;;;;1.70;1.30;;;11.50;54.50;;;;;;5007144;28;20021;-69
2023/04/20 07:17:29;;;;;;;1.77;0.90;;;11.50;54.70;;;;;;5005736;28;20036;-70
2023/04/20 07:19:56;;;;;;;1.25;0.82;;;11.50;54.70;;;;;;5008494;28;20026;-69
2023/04/20 07:22:21;;;;;;;2.28;0.85;;;11.60;54.70;;;;;;4986034;28;20057;-66
2023/04/20 07:24:47;;;;;;;1.15;1.05;;;11.60;54.80;;;;;;5003628;28;20033;-67
2023/04/20 07:27:13;;;;;;;0.98;0.85;;;11.60;54.90;;;;;;4992215;28;20053;-69
2023/04/20 07:29:39;;;;;;;2.10;1.27;;;11.60;54.90;;;;;;4999610;28;20036;-70
2023/04/20 07:32:04;;;;;;;1.65;1.23;;;11.70;54.70;;;;;;5007742;28;20298;-69
2023/04/20 07:34:30;;;;;;;1.63;1.00;;;11.70;54.80;;;;;;5005844;28;20030;-68
2023/04/20 07:36:56;;;;;;;2.00;0.70;;;11.70;54.80;;;;;;5003551;28;20080;-70
2023/04/20 07:39:24;;;;;;;1.17;0.95;;;11.70;54.80;;;;;;5004024;28;20037;-66
2023/04/20 07:41:49;;;;;;;2.28;1.50;;;11.70;54.80;;;;;;4989719;28;20504;-69
2023/04/20 07:44:15;;;;;;;2.63;1.10;;;11.70;54.80;;;;;;5002261;28;20133;-69
2023/04/20 07:46:41;;;;;;;1.83;0.85;;;11.80;55.00;;;;;;4984194;28;20468;-69
2023/04/20 07:49:06;;;;;;;1.40;1.20;;;11.80;55.10;;;;;;5001077;28;20381;-69
2023/04/20 07:51:33;;;;;;;1.63;1.05;;;11.80;55.00;;;;;;4989951;28;20030;-69
2023/04/20 07:53:59;;;;;;;2.15;0.90;;;11.90;54.80;;;;;;4989420;28;20382;-69
2023/04/20 07:56:25;;;;;;;0.60;0.60;;;12.00;54.70;;;;;;4987926;28;20029;-67
2023/04/20 07:58:51;;;;;;;1.20;1.00;;;12.10;54.60;;;;;;4987067;28;20544;-67
2023/04/20 08:01:16;;;;;;;2.83;1.58;;;12.30;54.50;;;;;;5006947;28;20176;-68
2023/04/20 08:03:42;;;;;;;0.73;0.60;;;12.30;54.40;;;;;;4986544;28;20143;-67
2023/04/20 08:06:09;;;;;;;2.30;1.30;;;12.40;54.40;;;;;;4989804;28;20173;-69
2023/04/20 08:08:35;;;;;;;0.98;0.77;;;12.40;54.40;;;;;;4987024;28;20444;-67
2023/04/20 08:11:00;;;;;;;3.08;1.23;;;12.40;54.30;;;;;;4998881;28;20029;-71
2023/04/20 08:13:27;;;;;;;3.45;1.20;;;12.40;54.30;;;;;;4968787;28;20034;-69
2023/04/20 08:15:53;;;;;;;0.90;0.90;;;12.40;54.30;;;;;;4999526;28;20893;-69
2023/04/20 08:18:18;;;;;;;0.90;0.90;;;12.40;54.40;;;;;;4982019;28;20053;-68
2023/04/20 08:20:45;;;;;;;1.65;1.17;;;12.40;54.50;;;;;;5006883;28;20037;-67
2023/04/20 08:23:11;;;;;;;1.15;0.80;;;12.50;54.50;;;;;;5003913;28;20302;-68
2023/04/20 08:25:39;;;;;;;1.55;0.85;;;12.60;54.40;;;;;;4988318;28;20057;-68
2023/04/20 08:28:05;;;;;;;3.85;1.23;;;12.60;54.30;;;;;;5002076;28;20060;-67
2023/04/20 08:30:31;;;;;;;1.15;0.85;;;12.60;54.20;;;;;;4987556;28;20042;-69
2023/04/20 08:32:58;;;;;;;3.05;1.10;;;12.60;54.20;;;;;;5006453;28;20030;-68
2023/04/20 08:35:23;;;;;;;2.17;1.13;;;12.60;54.30;;;;;;5001984;28;20030;-68
2023/04/20 08:37:49;;;;;;;2.65;1.58;;;12.60;54.40;;;;;;5006208;28;20515;-68
2023/04/20 08:40:18;;;;;;;2.50;1.40;;;12.60;54.60;;;;;;4988737;28;20057;-68
2023/04/20 08:42:44;;;;;;;1.48;0.88;;;12.50;54.70;;;;;;5005351;28;20021;-67
2023/04/20 08:45:11;;;;;;;1.70;1.00;;;12.40;54.80;;;;;;4981185;28;20085;-68
2023/04/20 08:47:38;;;;;;;2.20;1.35;;;12.40;54.90;;;;;;5000358;28;20038;-68
2023/04/20 08:50:04;;;;;;;1.15;0.77;;;12.40;54.90;;;;;;5004598;28;20481;-68
2023/04/20 08:52:31;;;;;;;1.42;1.00;;;12.40;55.10;;;;;;5006561;28;20030;-68
2023/04/20 08:54:57;;;;;;;3.05;1.25;;;12.50;55.10;;;;;;4988604;28;20026;-68
2023/04/20 08:57:23;;;;;;;1.33;1.20;;;12.50;55.10;;;;;;5002379;28;20610;-68
2023/04/20 08:59:49;;;;;;;2.30;1.50;;;12.60;55.10;;;;;;5007444;28;20127;-69
2023/04/20 09:02:15;;;;;;;0.98;0.88;;;12.60;55.10;;;;;;5009571;28;20102;-69
2023/04/20 09:04:41;;;;;;;1.48;1.10;;;12.60;55.00;;;;;;5005691;28;20368;-69
2023/04/20 09:07:17;;;;;;;0.95;0.95;;;12.70;54.90;;;;;;5007302;28;20030;-68
2023/04/20 09:09:59;;;;;;;1.67;0.85;;;12.60;54.90;;;;;;4994560;28;20479;-69
2023/04/20 09:12:26;;;;;;;1.15;0.68;;;12.60;55.00;;;;;;5004864;28;20511;-69
2023/04/20 09:14:52;;;;;;;1.80;1.42;;;12.60;55.10;;;;;;4980429;28;20100;-69
2023/04/20 09:17:30;;;;;;;1.42;1.13;;;12.50;55.50;;;;;;4989913;28;20037;-68
2023/04/20 09:19:56;;;;;;;1.80;1.00;;;12.50;55.60;;;;;;5006418;28;20030;-69
2023/04/20 09:22:36;;;;;;;0.80;0.80;;;12.50;55.70;;;;;;5005252;28;20045;-68
2023/04/20 09:25:15;;;;;;;4.55;1.17;;;12.50;55.60;;;;;;4990553;28;20040;-69
2023/04/20 09:27:41;;;;;;;0.98;0.70;;;12.60;55.30;;;;;;5009921;28;20339;-69
2023/04/20 09:30:08;;;;;;;1.15;1.05;;;12.60;55.30;;;;;;5005718;28;20105;-69
2023/04/20 09:32:34;;;;;;;1.38;1.00;;;12.60;55.40;;;;;;4991092;28;20034;-69
2023/04/20 09:35:00;;;;;;;1.90;1.23;;;12.50;55.40;;;;;;5009238;28;20042;-68
2023/04/20 09:37:26;;;;;;;1.08;0.75;;;12.40;55.60;;;;;;5007451;28;20028;-67
2023/04/20 09:39:58;;;;;;;1.52;1.13;;;12.20;55.70;;;;;;4969679;28;20041;-68
2023/04/20 09:42:26;;;;;;;1.08;0.90;;;12.20;55.90;;;;;;5002650;28;20044;-69
2023/04/20 09:44:52;;;;;;;1.85;1.15;;;12.10;56.10;;;;;;5004775;28;20080;-67
2023/04/20 09:47:19;;;;;;;1.63;0.98;;;12.10;56.20;;;;;;4990860;28;20038;-69
2023/04/20 09:49:48;;;;;;;2.03;0.70;;;12.00;56.20;;;;;;5011787;28;20068;-69
2023/04/20 09:52:19;;;;;;;1.13;0.82;;;12.00;56.20;;;;;;5009981;28;20025;-69
2023/04/20 09:54:45;;;;;;;1.27;1.17;;;12.00;56.30;;;;;;5006003;28;20049;-68
2023/04/20 09:57:13;;;;;;;6.90;1.23;;;12.10;56.50;;;;;;5003593;28;20023;-68
2023/04/20 09:59:42;;;;;;;0.75;0.70;;;12.20;56.20;;;;;;5010015;28;20460;-70
2023/04/20 10:02:10;;;;;;;0.70;0.70;;;12.50;55.90;;;;;;4991062;28;20018;-70
2023/04/20 10:04:36;;;;;;;0.85;0.75;;;12.80;55.30;;;;;;5010754;28;20392;-68
2023/04/20 10:07:05;;;;;;;1.20;0.65;;;12.90;54.80;;;;;;5007536;28;20034;-68
2023/04/20 10:09:32;;;;;;;2.22;0.80;;;13.10;54.60;;;;;;5007838;28;20120;-69
2023/04/20 10:12:08;;;;;;;1.58;0.65;;;13.30;54.40;;;;;;5007256;28;20431;-69
2023/04/20 10:14:34;;;;;;;1.30;0.85;;;13.50;54.00;;;;;;4989505;28;20088;-70
2023/04/20 10:17:03;;;;;;;3.47;0.65;;;13.70;53.70;;;;;;5011251;28;20026;-69
2023/04/20 10:19:39;;;;;;;0.82;0.65;;;13.80;53.40;;;;;;5010979;28;20129;-69
2023/04/20 10:22:06;;;;;;;0.70;0.70;;;13.90;53.00;;;;;;4990924;28;20029;-69
2023/04/20 10:24:32;;;;;;;1.85;1.17;;;13.90;52.70;;;;;;5010603;28;20036;-70
2023/04/20 10:26:58;;;;;;;1.10;0.70;;;14.00;52.50;;;;;;4990493;28;20037;-69
2023/04/20 10:29:26;;;;;;;1.13;0.93;;;14.20;52.50;;;;;;5010755;28;20092;-70
2023/04/20 10:31:53;;;;;;;0.73;0.73;;;14.60;52.00;;;;;;4992321;28;20018;-70
2023/04/20 10:34:32;;;;;;;4.80;0.80;;;14.80;51.20;;;;;;5010648;28;20080;-70
2023/04/20 10:37:12;;;;;;;2.17;1.27;;;15.10;50.80;;;;;;4976182;28;20038;-70
2023/04/20 10:39:47;;;;;;;2.03;0.77;;;15.20;50.20;;;;;;5007696;28;20037;-70
2023/04/20 10:42:13;;;;;;;2.80;0.50;;;15.30;50.10;;;;;;5009762;28;20029;-68
2023/04/20 10:44:48;;;;;;;1.30;0.90;;;15.40;50.00;;;;;;4992173;28;20575;-69
2023/04/20 10:47:15;;;;;;;1.75;0.77;;;15.50;49.20;;;;;;4991198;28;20394;-70
2023/04/20 10:49:40;;;;;;;1.15;0.80;;;15.40;49.20;;;;;;5010044;28;20026;-70
2023/04/20 10:52:06;;;;;;;0.82;0.63;;;15.20;49.50;;;;;;5010255;28;20400;-70
2023/04/20 10:54:39;;;;;;;1.85;0.55;;;15.10;49.90;;;;;;5009636;28;20030;-69
2023/04/20 10:57:06;;;;;;;1.45;0.98;;;15.20;49.80;;;;;;5008586;28;20025;-70
2023/04/20 10:59:33;;;;;;;5.10;0.80;;;15.30;49.60;;;;;;5010017;28;20388;-69
2023/04/20 11:02:00;;;;;;;0.85;0.65;;;15.30;49.20;;;;;;5009992;28;20041;-69
2023/04/20 11:04:33;;;;;;;2.47;1.00;;;15.10;49.10;;;;;;5009702;28;20370;-69
2023/04/20 11:07:06;;;;;;;2.75;0.70;;;14.90;49.00;;;;;;5010444;28;20037;-68
2023/04/20 11:09:33;;;;;;;4.55;1.27;;;14.80;49.40;;;;;;5007445;28;20481;-68
2023/04/20 11:12:03;;;;;;;0.80;0.65;;;14.60;49.60;;;;;;5001017;28;20067;-68
2023/04/20 11:14:30;;;;;;;0.80;0.50;;;14.40;49.90;;;;;;5002874;28;20037;-70
2023/04/20 11:16:57;;;;;;;1.17;0.43;;;14.20;50.20;;;;;;5004809;28;20028;-70
2023/04/20 11:19:27;;;;;;;0.50;0.50;;;14.10;50.50;;;;;;5001215;28;20420;-69
2023/04/20 11:21:54;;;;;;;1.92;0.70;;;14.10;50.70;;;;;;5003227;28;20088;-70
2023/04/20 11:24:21;;;;;;;1.00;0.90;;;14.10;50.80;;;;;;4981168;28;20393;-69
2023/04/20 11:26:53;;;;;;;0.80;0.63;;;14.10;50.70;;;;;;4988293;28;20038;-68
2023/04/20 11:29:32;;;;;;;1.43;0.70;;;14.10;50.60;;;;;;4984083;28;20110;-68
2023/04/20 11:32:00;;;;;;;1.67;1.05;;;14.10;50.50;;;;;;5002933;28;20731;-69
2023/04/20 11:34:26;;;;;;;0.98;0.88;;;14.00;50.60;;;;;;5006227;28;20381;-68
2023/04/20 11:36:55;;;;;;;0.52;0.52;;;14.00;50.80;;;;;;5009419;28;20037;-68
2023/04/20 11:39:28;;;;;;;2.45;1.30;;;14.00;50.80;;;;;;5009036;28;20044;-73
2023/04/20 11:41:56;;;;;;;2.08;1.15;;;14.00;50.60;;;;;;5003878;28;20460;-73
2023/04/20 11:44:23;;;;;;;1.48;0.90;;;14.00;50.70;;;;;;5006215;28;20115;-73
2023/04/20 11:46:49;;;;;;;1.65;1.13;;;14.00;50.70;;;;;;5003527;28;20508;-74
2023/04/20 11:49:18;;;;;;;1.48;1.08;;;13.90;50.80;;;;;;5006674;28;20034;-72
2023/04/20 11:51:48;;;;;;;0.88;0.52;;;13.80;51.10;;;;;;4985145;28;20040;-72
2023/04/20 11:54:14;;;;;;;0.98;0.70;;;13.80;51.20;;;;;;5006654;28;20096;-72
2023/04/20 11:56:41;;;;;;;1.20;0.60;;;13.90;51.30;;;;;;4991464;28;20076;-67
2023/04/20 11:59:07;;;;;;;1.55;1.00;;;13.90;51.10;;;;;;5012190;28;20498;-69
2023/04/20 12:01:34;;;;;;;1.17;1.00;;;13.90;50.90;;;;;;5005084;28;20026;-70
2023/04/20 12:04:00;;;;;;;0.70;0.50;;;13.80;51.00;;;;;;4999206;28;20054;-68
2023/04/20 12:06:27;;;;;;;1.15;0.73;;;13.60;51.20;;;;;;5001371;28;20125;-69
2023/04/20 12:08:56;;;;;;;0.77;0.70;;;13.60;51.60;;;;;;4972120;28;20058;-69
2023/04/20 12:11:23;;;;;;;1.17;1.02;;;13.50;51.70;;;;;;4998572;28;20413;-69
2023/04/20 12:13:49;;;;;;;1.90;0.90;;;13.60;51.90;;;;;;5001720;28;20120;-69
2023/04/20 12:16:15;;;;;;;1.65;1.05;;;13.70;51.90;;;;;;4983748;28;20141;-68
2023/04/20 12:18:41;;;;;;;1.98;1.00;;;13.80;51.70;;;;;;4988636;28;20400;-69
2023/04/20 12:21:06;;;;;;;3.38;1.33;;;13.80;51.50;;;;;;5002498;28;20029;-69
2023/04/20 12:23:33;;;;;;;1.73;0.85;;;13.80;51.50;;;;;;5004478;28;20034;-70
2023/04/20 12:25:58;;;;;;;3.45;1.08;;;13.70;51.30;;;;;;5002890;28;20833;-69
2023/04/20 12:28:24;;;;;;;0.70;0.68;;;13.60;51.50;;;;;;4988372;28;20073;-69
2023/04/20 12:30:50;;;;;;;1.20;1.10;;;13.60;51.70;;;;;;5003164;28;20034;-68
2023/04/20 12:33:16;;;;;;;1.65;1.08;;;13.50;51.80;;;;;;5007524;28;20034;-69
2023/04/20 12:35:43;;;;;;;3.03;1.30;;;13.50;52.50;;;;;;4984558;28;20034;-68
2023/04/20 12:38:09;;;;;;;1.95;0.80;;;13.50;52.00;;;;;;5007690;28;20481;-68
2023/04/20 12:40:35;;;;;;;1.85;1.00;;;13.50;52.00;;;;;;5004322;28;20030;-69
2023/04/20 12:43:00;;;;;;;1.13;0.70;;;13.60;52.00;;;;;;4989705;28;20045;-68
2023/04/20 12:45:26;;;;;;;2.58;1.10;;;13.70;52.10;;;;;;4989613;28;20041;-69